createdAt,value
2023-03-28T00:00:07.854Z,1018.55
2023-03-28T00:01:07.850Z,1018.54
2023-03-28T00:02:07.851Z,1018.57
2023-03-28T00:03:07.837Z,1018.60
2023-03-28T00:04:07.827Z,1018.59
2023-03-28T00:05:07.804Z,1018.60
2023-03-28T00:06:07.832Z,1018.62
2023-03-28T00:07:07.770Z,1018.61
2023-03-28T00:08:07.763Z,1018.61
2023-03-28T00:09:07.772Z,1018.66
2023-03-28T00:10:07.746Z,1018.64
2023-03-28T00:11:07.740Z,1018.68
2023-03-28T00:12:07.720Z,1018.70
2023-03-28T00:13:07.701Z,1018.72
2023-03-28T00:14:07.697Z,1018.71
2023-03-28T00:15:07.695Z,1018.72
2023-03-28T00:16:07.737Z,1018.68
2023-03-28T00:17:07.674Z,1018.73
2023-03-28T00:18:07.668Z,1018.69
2023-03-28T00:19:07.636Z,1018.69
2023-03-28T00:20:08.815Z,1018.71
2023-03-28T00:21:07.623Z,1018.69
2023-03-28T00:22:07.608Z,1018.72
2023-03-28T00:23:07.601Z,1018.68
2023-03-28T00:24:07.574Z,1018.69
2023-03-28T00:25:07.572Z,1018.73
2023-03-28T00:26:07.561Z,1018.69
2023-03-28T00:27:07.551Z,1018.67
2023-03-28T00:28:07.537Z,1018.67
2023-03-28T00:29:07.533Z,1018.67
2023-03-28T00:30:07.517Z,1018.70
2023-03-28T00:31:07.513Z,1018.65
2023-03-28T00:32:07.496Z,1018.67
2023-03-28T00:33:07.514Z,1018.68
2023-03-28T00:34:07.472Z,1018.71
2023-03-28T00:35:07.463Z,1018.70
2023-03-28T00:36:07.491Z,1018.71
2023-03-28T00:37:07.442Z,1018.74
2023-03-28T00:38:07.420Z,1018.73
2023-03-28T00:39:07.429Z,1018.72
2023-03-28T00:40:07.430Z,1018.75
2023-03-28T00:41:07.382Z,1018.78
2023-03-28T00:42:07.383Z,1018.75
2023-03-28T00:43:07.385Z,1018.71
2023-03-28T00:44:07.363Z,1018.77
2023-03-28T00:45:07.352Z,1018.79
2023-03-28T00:46:09.349Z,1018.73
2023-03-28T00:47:07.362Z,1018.77
2023-03-28T00:48:14.420Z,1018.77
2023-03-28T00:49:07.301Z,1018.76
2023-03-28T00:50:07.299Z,1018.78
2023-03-28T00:51:07.272Z,1018.75
2023-03-28T00:52:07.262Z,1018.78
2023-03-28T00:53:07.261Z,1018.77
2023-03-28T00:54:07.240Z,1018.72
2023-03-28T00:55:07.232Z,1018.76
2023-03-28T00:56:07.220Z,1018.76
2023-03-28T00:57:07.226Z,1018.72
2023-03-28T00:58:07.192Z,1018.70
2023-03-28T00:59:07.177Z,1018.71
2023-03-28T01:00:07.181Z,1018.71
2023-03-28T01:01:07.171Z,1018.77
2023-03-28T01:02:07.173Z,1018.75
2023-03-28T01:03:07.193Z,1018.73
2023-03-28T01:04:07.133Z,1018.71
2023-03-28T01:05:07.108Z,1018.69
2023-03-28T01:06:07.097Z,1018.68
2023-03-28T01:07:07.101Z,1018.67
2023-03-28T01:08:07.080Z,1018.68
2023-03-28T01:09:07.064Z,1018.63
2023-03-28T01:10:07.044Z,1018.67
2023-03-28T01:11:07.057Z,1018.65
2023-03-28T01:12:07.019Z,1018.61
2023-03-28T01:13:07.014Z,1018.71
2023-03-28T01:14:07.002Z,1018.66
2023-03-28T01:15:06.991Z,1018.64
2023-03-28T01:16:07.042Z,1018.70
2023-03-28T01:17:06.967Z,1018.73
2023-03-28T01:18:06.999Z,1018.72
2023-03-28T01:19:06.937Z,1018.69
2023-03-28T01:20:06.929Z,1018.67
2023-03-28T01:21:06.926Z,1018.74
2023-03-28T01:22:06.902Z,1018.73
2023-03-28T01:23:06.896Z,1018.69
2023-03-28T01:24:11.428Z,1018.69
2023-03-28T01:25:06.870Z,1018.71
2023-03-28T01:26:06.854Z,1018.76
2023-03-28T01:27:06.842Z,1018.74
2023-03-28T01:28:06.838Z,1018.76
2023-03-28T01:29:06.826Z,1018.77
2023-03-28T01:30:06.811Z,1018.74
2023-03-28T01:31:06.838Z,1018.71
2023-03-28T01:32:06.781Z,1018.73
2023-03-28T01:33:06.848Z,1018.76
2023-03-28T01:34:06.770Z,1018.81
2023-03-28T01:35:06.749Z,1018.75
2023-03-28T01:36:06.779Z,1018.76
2023-03-28T01:37:06.728Z,1018.75
2023-03-28T01:38:06.712Z,1018.71
2023-03-28T01:39:06.702Z,1018.72
2023-03-28T01:40:06.714Z,1018.68
2023-03-28T01:41:06.676Z,1018.66
2023-03-28T01:42:06.658Z,1018.70
2023-03-28T01:43:06.658Z,1018.71
2023-03-28T01:44:06.642Z,1018.72
2023-03-28T01:45:06.630Z,1018.77
2023-03-28T01:46:06.650Z,1018.77
2023-03-28T01:47:06.606Z,1018.73
2023-03-28T01:48:06.637Z,1018.77
2023-03-28T01:49:06.594Z,1018.74
2023-03-28T01:50:06.568Z,1018.73
2023-03-28T01:51:06.568Z,1018.69
2023-03-28T01:52:06.540Z,1018.69
2023-03-28T01:53:06.538Z,1018.71
2023-03-28T01:54:06.531Z,1018.70
2023-03-28T01:55:06.515Z,1018.67
2023-03-28T01:56:06.502Z,1018.65
2023-03-28T01:57:06.559Z,1018.68
2023-03-28T01:58:06.473Z,1018.66
2023-03-28T01:59:06.453Z,1018.68
2023-03-28T02:00:06.447Z,1018.65
2023-03-28T02:01:06.453Z,1018.62
2023-03-28T02:02:06.477Z,1018.61
2023-03-28T02:03:06.673Z,1018.60
2023-03-28T02:04:06.406Z,1018.57
2023-03-28T02:05:06.404Z,1018.54
2023-03-28T02:06:06.375Z,1018.54
2023-03-28T02:07:06.370Z,1018.49
2023-03-28T02:08:06.358Z,1018.54
2023-03-28T02:09:06.347Z,1018.55
2023-03-28T02:10:21.257Z,1018.51
2023-03-28T02:11:06.334Z,1018.50
2023-03-28T02:12:06.314Z,1018.53
2023-03-28T02:13:06.298Z,1018.53
2023-03-28T02:14:06.295Z,1018.55
2023-03-28T02:15:06.277Z,1018.59
2023-03-28T02:16:06.310Z,1018.57
2023-03-28T02:17:06.254Z,1018.61
2023-03-28T02:18:06.267Z,1018.54
2023-03-28T02:19:06.228Z,1018.60
2023-03-28T02:20:06.220Z,1018.61
2023-03-28T02:21:06.206Z,1018.59
2023-03-28T02:22:06.194Z,1018.62
2023-03-28T02:23:06.186Z,1018.61
2023-03-28T02:24:06.173Z,1018.60
2023-03-28T02:25:06.165Z,1018.62
2023-03-28T02:26:06.149Z,1018.63
2023-03-28T02:27:06.134Z,1018.61
2023-03-28T02:28:06.125Z,1018.60
2023-03-28T02:29:06.114Z,1018.59
2023-03-28T02:30:06.096Z,1018.54
2023-03-28T02:31:06.088Z,1018.54
2023-03-28T02:32:06.120Z,1018.53
2023-03-28T02:33:06.136Z,1018.55
2023-03-28T02:34:06.053Z,1018.48
2023-03-28T02:35:06.037Z,1018.47
2023-03-28T02:36:06.057Z,1018.49
2023-03-28T02:37:06.020Z,1018.44
2023-03-28T02:38:06.005Z,1018.44
2023-03-28T02:39:05.996Z,1018.45
2023-03-28T02:40:05.992Z,1018.43
2023-03-28T02:41:05.971Z,1018.43
2023-03-28T02:42:05.969Z,1018.41
2023-03-28T02:43:05.944Z,1018.43
2023-03-28T02:44:05.931Z,1018.42
2023-03-28T02:45:05.925Z,1018.45
2023-03-28T02:46:05.950Z,1018.45
2023-03-28T02:47:05.895Z,1018.47
2023-03-28T02:48:05.907Z,1018.49
2023-03-28T02:49:05.872Z,1018.45
2023-03-28T02:50:05.872Z,1018.50
2023-03-28T02:51:05.850Z,1018.48
2023-03-28T02:52:05.841Z,1018.52
2023-03-28T02:53:05.832Z,1018.52
2023-03-28T02:54:05.812Z,1018.49
2023-03-28T02:55:05.797Z,1018.49
2023-03-28T02:56:05.798Z,1018.50
2023-03-28T02:57:05.785Z,1018.47
2023-03-28T02:58:05.777Z,1018.49
2023-03-28T02:59:05.752Z,1018.52
2023-03-28T03:00:05.738Z,1018.46
2023-03-28T03:01:05.738Z,1018.47
2023-03-28T03:02:05.727Z,1018.48
2023-03-28T03:03:05.733Z,1018.49
2023-03-28T03:04:05.727Z,1018.48
2023-03-28T03:05:05.685Z,1018.49
2023-03-28T03:06:05.672Z,1018.53
2023-03-28T03:07:05.665Z,1018.48
2023-03-28T03:08:05.648Z,1018.52
2023-03-28T03:09:05.639Z,1018.55
2023-03-28T03:10:05.622Z,1018.55
2023-03-28T03:11:05.610Z,1018.55
2023-03-28T03:12:05.598Z,1018.53
2023-03-28T03:13:05.597Z,1018.55
2023-03-28T03:14:05.579Z,1018.57
2023-03-28T03:15:05.566Z,1018.59
2023-03-28T03:16:05.614Z,1018.60
2023-03-28T03:17:05.536Z,1018.62
2023-03-28T03:18:05.565Z,1018.65
2023-03-28T03:19:05.525Z,1018.64
2023-03-28T03:20:05.504Z,1018.62
2023-03-28T03:21:05.491Z,1018.63
2023-03-28T03:22:05.486Z,1018.65
2023-03-28T03:23:05.473Z,1018.63
2023-03-28T03:24:05.456Z,1018.65
2023-03-28T03:25:05.438Z,1018.61
2023-03-28T03:26:05.434Z,1018.64
2023-03-28T03:27:05.418Z,1018.65
2023-03-28T03:28:05.403Z,1018.61
2023-03-28T03:29:05.395Z,1018.61
2023-03-28T03:30:05.377Z,1018.58
2023-03-28T03:31:05.389Z,1018.61
2023-03-28T03:32:05.363Z,1018.61
2023-03-28T03:33:05.377Z,1018.55
2023-03-28T03:34:05.334Z,1018.65
2023-03-28T03:35:05.318Z,1018.66
2023-03-28T03:36:05.334Z,1018.65
2023-03-28T03:37:05.294Z,1018.66
2023-03-28T03:38:05.280Z,1018.66
2023-03-28T03:39:05.275Z,1018.62
2023-03-28T03:40:05.253Z,1018.64
2023-03-28T03:41:05.242Z,1018.61
2023-03-28T03:42:05.233Z,1018.63
2023-03-28T03:43:05.219Z,1018.65
2023-03-28T03:44:05.210Z,1018.62
2023-03-28T03:45:05.208Z,1018.70
2023-03-28T03:46:05.301Z,1018.63
2023-03-28T03:47:05.181Z,1018.63
2023-03-28T03:48:05.191Z,1018.67
2023-03-28T03:49:05.174Z,1018.66
2023-03-28T03:50:05.192Z,1018.66
2023-03-28T03:51:05.114Z,1018.66
2023-03-28T03:52:05.111Z,1018.60
2023-03-28T03:53:05.130Z,1018.65
2023-03-28T03:54:05.125Z,1018.65
2023-03-28T03:55:05.070Z,1018.62
2023-03-28T03:56:05.068Z,1018.62
2023-03-28T03:57:05.130Z,1018.67
2023-03-28T03:58:05.054Z,1018.66
2023-03-28T03:59:05.031Z,1018.63
2023-03-28T04:00:05.022Z,1018.67
2023-03-28T04:01:04.997Z,1018.66
2023-03-28T04:02:05.031Z,1018.69
2023-03-28T04:03:05.016Z,1018.73
2023-03-28T04:04:05.017Z,1018.69
2023-03-28T04:05:04.944Z,1018.69
2023-03-28T04:06:04.936Z,1018.71
2023-03-28T04:07:04.934Z,1018.73
2023-03-28T04:08:04.913Z,1018.73
2023-03-28T04:09:04.894Z,1018.74
2023-03-28T04:10:04.894Z,1018.80
2023-03-28T04:11:04.885Z,1018.76
2023-03-28T04:12:04.872Z,1018.84
2023-03-28T04:13:04.847Z,1018.83
2023-03-28T04:14:04.837Z,1018.83
2023-03-28T04:15:04.828Z,1018.85
2023-03-28T04:16:04.875Z,1018.84
2023-03-28T04:17:04.794Z,1018.81
2023-03-28T04:18:06.918Z,1018.82
2023-03-28T04:19:04.797Z,1018.82
2023-03-28T04:20:04.823Z,1018.82
2023-03-28T04:21:04.749Z,1018.78
2023-03-28T04:22:04.745Z,1018.84
2023-03-28T04:23:04.730Z,1018.87
2023-03-28T04:24:04.755Z,1018.90
2023-03-28T04:25:04.731Z,1018.88
2023-03-28T04:26:04.696Z,1018.91
2023-03-28T04:27:04.679Z,1018.89
2023-03-28T04:28:04.670Z,1018.92
2023-03-28T04:29:04.652Z,1018.89
2023-03-28T04:30:04.640Z,1018.89
2023-03-28T04:31:04.669Z,1018.87
2023-03-28T04:32:04.626Z,1018.82
2023-03-28T04:33:04.638Z,1018.86
2023-03-28T04:34:04.604Z,1018.86
2023-03-28T04:35:04.585Z,1018.87
2023-03-28T04:36:04.686Z,1018.89
2023-03-28T04:37:04.563Z,1018.85
2023-03-28T04:38:04.547Z,1018.82
2023-03-28T04:39:04.537Z,1018.86
2023-03-28T04:40:04.520Z,1018.88
2023-03-28T04:41:04.516Z,1018.88
2023-03-28T04:42:04.599Z,1018.90
2023-03-28T04:43:04.490Z,1018.91
2023-03-28T04:44:04.481Z,1018.92
2023-03-28T04:45:04.460Z,1018.90
2023-03-28T04:46:04.492Z,1018.98
2023-03-28T04:47:04.445Z,1019.02
2023-03-28T04:48:04.471Z,1018.96
2023-03-28T04:49:04.408Z,1018.98
2023-03-28T04:50:04.417Z,1018.95
2023-03-28T04:51:04.402Z,1019.01
2023-03-28T04:52:04.390Z,1019.00
2023-03-28T04:53:04.376Z,1019.00
2023-03-28T04:54:04.354Z,1019.01
2023-03-28T04:55:04.346Z,1019.03
2023-03-28T04:56:04.329Z,1019.02
2023-03-28T04:57:04.350Z,1019.04
2023-03-28T04:58:04.304Z,1019.08
2023-03-28T04:59:04.296Z,1019.13
2023-03-28T05:00:04.280Z,1019.12
2023-03-28T05:01:04.325Z,1019.12
2023-03-28T05:02:04.286Z,1019.12
2023-03-28T05:03:04.317Z,1019.11
2023-03-28T05:04:04.229Z,1019.08
2023-03-28T05:05:04.236Z,1019.06
2023-03-28T05:06:04.200Z,1019.09
2023-03-28T05:07:04.186Z,1019.06
2023-03-28T05:08:04.182Z,1019.06
2023-03-28T05:09:04.172Z,1019.07
2023-03-28T05:10:04.155Z,1019.05
2023-03-28T05:11:04.152Z,1019.09
2023-03-28T05:12:04.128Z,1019.06
2023-03-28T05:13:04.120Z,1019.09
2023-03-28T05:14:04.108Z,1019.11
2023-03-28T05:15:04.088Z,1019.07
2023-03-28T05:16:04.107Z,1019.04
2023-03-28T05:17:04.067Z,1019.06
2023-03-28T05:18:04.079Z,1019.04
2023-03-28T05:19:04.045Z,1019.09
2023-03-28T05:20:04.025Z,1019.10
2023-03-28T05:21:04.022Z,1019.14
2023-03-28T05:22:04.004Z,1019.21
2023-03-28T05:23:03.990Z,1019.18
2023-03-28T05:24:03.978Z,1019.23
2023-03-28T05:25:03.976Z,1019.19
2023-03-28T05:26:03.954Z,1019.22
2023-03-28T05:27:03.951Z,1019.19
2023-03-28T05:28:03.932Z,1019.19
2023-03-28T05:29:03.947Z,1019.19
2023-03-28T05:30:03.907Z,1019.16
2023-03-28T05:31:03.898Z,1019.22
2023-03-28T05:32:03.914Z,1019.18
2023-03-28T05:33:03.948Z,1019.19
2023-03-28T05:34:03.854Z,1019.16
2023-03-28T05:35:03.840Z,1019.15
2023-03-28T05:36:03.894Z,1019.16
2023-03-28T05:37:03.816Z,1019.14
2023-03-28T05:38:03.800Z,1019.19
2023-03-28T05:39:03.790Z,1019.19
2023-03-28T05:40:03.796Z,1019.22
2023-03-28T05:41:03.785Z,1019.24
2023-03-28T05:42:03.763Z,1019.23
2023-03-28T05:43:03.752Z,1019.25
2023-03-28T05:44:03.745Z,1019.26
2023-03-28T05:45:03.730Z,1019.26
2023-03-28T05:46:03.736Z,1019.26
2023-03-28T05:47:03.698Z,1019.24
2023-03-28T05:48:03.722Z,1019.30
2023-03-28T05:49:03.670Z,1019.29
2023-03-28T05:50:03.672Z,1019.28
2023-03-28T05:51:03.657Z,1019.26
2023-03-28T05:52:03.641Z,1019.28
2023-03-28T05:53:03.625Z,1019.28
2023-03-28T05:54:03.610Z,1019.28
2023-03-28T05:55:03.604Z,1019.18
2023-03-28T05:56:03.593Z,1019.21
2023-03-28T05:57:03.627Z,1019.27
2023-03-28T05:58:03.568Z,1019.25
2023-03-28T05:59:03.547Z,1019.25
2023-03-28T06:00:03.534Z,1019.27
2023-03-28T06:01:03.522Z,1019.21
2023-03-28T06:02:03.517Z,1019.22
2023-03-28T06:03:03.665Z,1019.21
2023-03-28T06:04:03.597Z,1019.21
2023-03-28T06:05:03.522Z,1019.29
2023-03-28T06:06:03.458Z,1019.24
2023-03-28T06:07:03.460Z,1019.28
2023-03-28T06:08:03.437Z,1019.26
2023-03-28T06:09:03.430Z,1019.27
2023-03-28T06:10:03.419Z,1019.22
2023-03-28T06:11:03.413Z,1019.27
2023-03-28T06:12:03.394Z,1019.26
2023-03-28T06:13:03.381Z,1019.25
2023-03-28T06:14:03.374Z,1019.29
2023-03-28T06:15:03.364Z,1019.28
2023-03-28T06:16:03.347Z,1019.28
2023-03-28T06:17:03.421Z,1019.29
2023-03-28T06:18:03.365Z,1019.29
2023-03-28T06:19:16.618Z,1019.33
2023-03-28T06:20:03.322Z,1019.36
2023-03-28T06:21:03.285Z,1019.32
2023-03-28T06:22:03.266Z,1019.29
2023-03-28T06:23:03.260Z,1019.29
2023-03-28T06:24:03.251Z,1019.34
2023-03-28T06:25:03.236Z,1019.32
2023-03-28T06:26:03.241Z,1019.39
2023-03-28T06:27:03.204Z,1019.38
2023-03-28T06:28:03.189Z,1019.42
2023-03-28T06:29:03.190Z,1019.45
2023-03-28T06:30:03.175Z,1019.41
2023-03-28T06:31:03.475Z,1019.40
2023-03-28T06:32:03.153Z,1019.47
2023-03-28T06:33:03.191Z,1019.45
2023-03-28T06:34:03.115Z,1019.49
2023-03-28T06:35:03.126Z,1019.52
2023-03-28T06:36:03.147Z,1019.53
2023-03-28T06:37:03.088Z,1019.57
2023-03-28T06:38:03.125Z,1019.59
2023-03-28T06:39:03.066Z,1019.61
2023-03-28T06:40:03.078Z,1019.62
2023-03-28T06:41:03.043Z,1019.58
2023-03-28T06:42:03.024Z,1019.63
2023-03-28T06:43:03.017Z,1019.61
2023-03-28T06:44:03.013Z,1019.64
2023-03-28T06:45:03.002Z,1019.64
2023-03-28T06:46:03.065Z,1019.58
2023-03-28T06:47:02.991Z,1019.59
2023-03-28T06:48:03.019Z,1019.61
2023-03-28T06:49:02.951Z,1019.59
2023-03-28T06:50:02.947Z,1019.63
2023-03-28T06:51:02.929Z,1019.64
2023-03-28T06:52:02.910Z,1019.66
2023-03-28T06:53:02.898Z,1019.67
2023-03-28T06:54:02.887Z,1019.68
2023-03-28T06:55:02.877Z,1019.72
2023-03-28T06:56:02.862Z,1019.73
2023-03-28T06:57:02.885Z,1019.72
2023-03-28T06:58:02.843Z,1019.75
2023-03-28T06:59:02.824Z,1019.76
2023-03-28T07:00:02.815Z,1019.77
2023-03-28T07:01:02.916Z,1019.78
2023-03-28T07:02:02.849Z,1019.79
2023-03-28T07:03:02.817Z,1019.81
2023-03-28T07:04:02.972Z,1019.77
2023-03-28T07:05:02.754Z,1019.79
2023-03-28T07:06:02.747Z,1019.83
2023-03-28T07:07:02.747Z,1019.84
2023-03-28T07:08:02.726Z,1019.80
2023-03-28T07:09:04.729Z,1019.81
2023-03-28T07:10:02.692Z,1019.79
2023-03-28T07:11:02.911Z,1019.79
2023-03-28T07:12:02.676Z,1019.79
2023-03-28T07:13:02.665Z,1019.79
2023-03-28T07:14:02.650Z,1019.82
2023-03-28T07:15:02.643Z,1019.79
2023-03-28T07:16:02.640Z,1019.83
2023-03-28T07:17:02.750Z,1019.80
2023-03-28T07:18:02.638Z,1019.82
2023-03-28T07:19:02.590Z,1019.79
2023-03-28T07:20:02.581Z,1019.77
2023-03-28T07:21:04.349Z,1019.81
2023-03-28T07:22:02.554Z,1019.79
2023-03-28T07:23:02.549Z,1019.76
2023-03-28T07:24:02.535Z,1019.74
2023-03-28T07:25:02.525Z,1019.75
2023-03-28T07:26:02.525Z,1019.76
2023-03-28T07:27:14.782Z,1019.74
2023-03-28T07:28:02.493Z,1019.75
2023-03-28T07:29:02.489Z,1019.76
2023-03-28T07:30:02.466Z,1019.75
2023-03-28T07:31:02.631Z,1019.77
2023-03-28T07:32:02.471Z,1019.79
2023-03-28T07:34:02.445Z,1019.80
2023-03-28T07:35:02.412Z,1019.76
2023-03-28T07:36:02.439Z,1019.79
2023-03-28T07:37:02.386Z,1019.79
2023-03-28T07:38:02.374Z,1019.82
2023-03-28T07:39:02.371Z,1019.79
2023-03-28T07:40:02.349Z,1019.79
2023-03-28T07:41:02.514Z,1019.83
2023-03-28T07:42:02.321Z,1019.86
2023-03-28T07:43:02.318Z,1019.82
2023-03-28T07:44:02.309Z,1019.83
2023-03-28T07:45:02.300Z,1019.83
2023-03-28T07:46:02.320Z,1019.85
2023-03-28T07:47:02.275Z,1019.84
2023-03-28T07:48:02.289Z,1019.86
2023-03-28T07:49:02.252Z,1019.84
2023-03-28T07:50:02.251Z,1019.84
2023-03-28T07:51:02.235Z,1019.87
2023-03-28T07:52:02.214Z,1019.87
2023-03-28T07:53:02.205Z,1019.86
2023-03-28T07:54:02.193Z,1019.87
2023-03-28T07:55:02.202Z,1019.91
2023-03-28T07:56:02.174Z,1019.91
2023-03-28T07:57:02.195Z,1019.84
2023-03-28T07:58:02.170Z,1019.89
2023-03-28T07:59:02.195Z,1019.85
2023-03-28T08:00:02.150Z,1019.87
2023-03-28T08:01:02.180Z,1019.85
2023-03-28T08:02:02.102Z,1019.82
2023-03-28T08:03:02.199Z,1019.81
2023-03-28T08:04:02.195Z,1019.77
2023-03-28T08:05:02.104Z,1019.79
2023-03-28T08:06:02.113Z,1019.77
2023-03-28T08:07:02.071Z,1019.78
2023-03-28T08:08:02.036Z,1019.77
2023-03-28T08:09:02.023Z,1019.80
2023-03-28T08:10:02.014Z,1019.80
2023-03-28T08:11:02.164Z,1019.81
2023-03-28T08:12:01.988Z,1019.82
2023-03-28T08:13:01.992Z,1019.84
2023-03-28T08:14:01.963Z,1019.79
2023-03-28T08:15:01.967Z,1019.75
2023-03-28T08:16:01.966Z,1019.77
2023-03-28T08:17:01.925Z,1019.75
2023-03-28T08:18:01.978Z,1019.77
2023-03-28T08:19:10.634Z,1019.84
2023-03-28T08:20:01.895Z,1019.81
2023-03-28T08:21:02.377Z,1019.85
2023-03-28T08:22:01.876Z,1019.85
2023-03-28T08:23:01.869Z,1019.89
2023-03-28T08:24:01.846Z,1019.84
2023-03-28T08:25:01.845Z,1019.88
2023-03-28T08:26:01.828Z,1019.89
2023-03-28T08:27:01.818Z,1019.92
2023-03-28T08:28:01.805Z,1019.84
2023-03-28T08:29:01.798Z,1019.82
2023-03-28T08:30:01.802Z,1019.84
2023-03-28T08:31:02.054Z,1019.81
2023-03-28T08:32:01.768Z,1019.81
2023-03-28T08:33:01.778Z,1019.81
2023-03-28T08:34:01.747Z,1019.82
2023-03-28T08:35:01.730Z,1019.80
2023-03-28T08:36:01.740Z,1019.77
2023-03-28T08:37:01.717Z,1019.80
2023-03-28T08:38:01.704Z,1019.81
2023-03-28T08:39:01.696Z,1019.82
2023-03-28T08:40:01.675Z,1019.83
2023-03-28T08:41:01.880Z,1019.83
2023-03-28T08:42:01.654Z,1019.82
2023-03-28T08:43:01.666Z,1019.81
2023-03-28T08:44:01.645Z,1019.80
2023-03-28T08:45:01.628Z,1019.84
2023-03-28T08:46:01.702Z,1019.89
2023-03-28T08:47:01.664Z,1019.91
2023-03-28T08:48:01.635Z,1019.89
2023-03-28T08:49:01.852Z,1019.93
2023-03-28T08:50:01.572Z,1019.91
2023-03-28T08:51:01.697Z,1019.90
2023-03-28T08:52:01.569Z,1019.93
2023-03-28T08:53:01.558Z,1019.94
2023-03-28T08:54:01.542Z,1019.97
2023-03-28T08:55:01.532Z,1019.94
2023-03-28T08:56:01.512Z,1019.94
2023-03-28T08:57:01.500Z,1019.95
2023-03-28T08:58:01.497Z,1019.95
2023-03-28T08:59:01.479Z,1019.96
2023-03-28T09:00:01.469Z,1019.96
2023-03-28T09:01:01.581Z,1019.93
2023-03-28T09:02:01.556Z,1019.93
2023-03-28T09:03:01.481Z,1019.92
2023-03-28T09:04:01.551Z,1019.86
2023-03-28T09:05:17.754Z,1019.88
2023-03-28T09:06:01.740Z,1019.87
2023-03-28T09:07:01.410Z,1019.88
2023-03-28T09:08:01.389Z,1019.88
2023-03-28T09:09:01.378Z,1019.90
2023-03-28T09:10:01.374Z,1019.89
2023-03-28T09:11:01.587Z,1019.87
2023-03-28T09:12:01.348Z,1019.87
2023-03-28T09:13:01.338Z,1019.88
2023-03-28T09:14:01.330Z,1019.90
2023-03-28T09:15:01.405Z,1019.92
2023-03-28T09:16:01.362Z,1019.92
2023-03-28T09:17:01.303Z,1019.91
2023-03-28T09:18:01.335Z,1019.96
2023-03-28T09:19:01.288Z,1019.98
2023-03-28T09:20:01.270Z,1019.89
2023-03-28T09:21:01.421Z,1019.89
2023-03-28T09:22:12.431Z,1019.91
2023-03-28T09:23:01.246Z,1019.90
2023-03-28T09:24:01.241Z,1019.94
2023-03-28T09:25:01.231Z,1019.91
2023-03-28T09:26:01.877Z,1019.92
2023-03-28T09:27:01.213Z,1019.90
2023-03-28T09:28:01.205Z,1019.93
2023-03-28T09:29:01.235Z,1019.93
2023-03-28T09:30:01.191Z,1019.93
2023-03-28T09:31:01.557Z,1019.89
2023-03-28T09:32:01.175Z,1019.87
2023-03-28T09:33:01.188Z,1019.88
2023-03-28T09:34:01.140Z,1019.83
2023-03-28T09:35:01.157Z,1019.86
2023-03-28T09:36:01.178Z,1019.81
2023-03-28T09:37:01.116Z,1019.81
2023-03-28T09:38:01.115Z,1019.83
2023-03-28T09:39:01.098Z,1019.86
2023-03-28T09:40:01.091Z,1019.85
2023-03-28T09:41:01.201Z,1019.89
2023-03-28T09:42:01.081Z,1019.87
2023-03-28T09:43:01.087Z,1019.84
2023-03-28T09:44:01.057Z,1019.82
2023-03-28T09:45:01.060Z,1019.76
2023-03-28T09:46:01.086Z,1019.83
2023-03-28T09:47:01.024Z,1019.76
2023-03-28T09:48:01.141Z,1019.75
2023-03-28T09:49:01.092Z,1019.76
2023-03-28T09:50:12.048Z,1019.77
2023-03-28T09:51:01.128Z,1019.75
2023-03-28T09:52:00.982Z,1019.71
2023-03-28T09:53:00.978Z,1019.70
2023-03-28T09:54:00.965Z,1019.75
2023-03-28T09:55:00.958Z,1019.74
2023-03-28T09:56:04.436Z,1019.70
2023-03-28T09:57:01.032Z,1019.68
2023-03-28T09:58:00.953Z,1019.73
2023-03-28T09:59:00.924Z,1019.68
2023-03-28T10:00:00.917Z,1019.72
2023-03-28T10:01:01.077Z,1019.68
2023-03-28T10:02:00.980Z,1019.70
2023-03-28T10:03:00.944Z,1019.68
2023-03-28T10:04:00.941Z,1019.70
2023-03-28T10:05:01.878Z,1019.69
2023-03-28T10:06:00.869Z,1019.70
2023-03-28T10:07:00.868Z,1019.72
2023-03-28T10:08:00.859Z,1019.62
2023-03-28T10:09:00.868Z,1019.64
2023-03-28T10:10:00.855Z,1019.62
2023-03-28T10:11:00.983Z,1019.67
2023-03-28T10:12:00.833Z,1019.61
2023-03-28T10:13:00.826Z,1019.58
2023-03-28T10:14:00.807Z,1019.53
2023-03-28T10:15:00.819Z,1019.58
2023-03-28T10:16:00.878Z,1019.59
2023-03-28T10:17:01.199Z,1019.54
2023-03-28T10:18:00.824Z,1019.52
2023-03-28T10:19:00.804Z,1019.46
2023-03-28T10:20:00.802Z,1019.47
2023-03-28T10:21:00.913Z,1019.50
2023-03-28T10:22:00.765Z,1019.44
2023-03-28T10:23:02.660Z,1019.53
2023-03-28T10:24:00.760Z,1019.53
2023-03-28T10:25:00.758Z,1019.48
2023-03-28T10:26:00.755Z,1019.49
2023-03-28T10:27:00.746Z,1019.51
2023-03-28T10:28:00.736Z,1019.50
2023-03-28T10:29:03.809Z,1019.51
2023-03-28T10:30:00.726Z,1019.48
2023-03-28T10:31:00.922Z,1019.53
2023-03-28T10:32:00.811Z,1019.51
2023-03-28T10:33:00.758Z,1019.48
2023-03-28T10:34:00.700Z,1019.44
2023-03-28T10:35:00.693Z,1019.40
2023-03-28T10:36:00.714Z,1019.39
2023-03-28T10:37:00.682Z,1019.38
2023-03-28T10:38:00.676Z,1019.39
2023-03-28T10:39:00.666Z,1019.37
2023-03-28T10:40:00.732Z,1019.36
2023-03-28T10:41:00.909Z,1019.34
2023-03-28T10:42:00.650Z,1019.25
2023-03-28T10:43:00.648Z,1019.27
2023-03-28T10:44:00.640Z,1019.26
2023-03-28T10:45:00.648Z,1019.29
2023-03-28T10:46:00.664Z,1019.27
2023-03-28T10:47:00.626Z,1019.20
2023-03-28T10:48:00.662Z,1019.19
2023-03-28T10:49:00.601Z,1019.19
2023-03-28T10:50:00.615Z,1019.18
2023-03-28T10:51:00.769Z,1019.17
2023-03-28T10:52:00.596Z,1019.09
2023-03-28T10:53:00.576Z,1019.07
2023-03-28T10:54:00.581Z,1019.01
2023-03-28T10:55:00.578Z,1019.06
2023-03-28T10:56:00.623Z,1019.04
2023-03-28T10:57:00.593Z,1019.02
2023-03-28T10:58:00.574Z,1019.00
2023-03-28T10:59:00.560Z,1019.05
2023-03-28T11:00:00.560Z,1019.01
2023-03-28T11:01:00.736Z,1019.02
2023-03-28T11:02:00.600Z,1018.99
2023-03-28T11:03:00.646Z,1018.96
2023-03-28T11:04:00.638Z,1019.00
2023-03-28T11:05:00.531Z,1018.98
2023-03-28T11:06:08.681Z,1018.92
2023-03-28T11:07:00.516Z,1018.93
2023-03-28T11:08:00.502Z,1018.90
2023-03-28T11:09:00.494Z,1018.90
2023-03-28T11:10:00.484Z,1018.86
2023-03-28T11:11:00.738Z,1018.85
2023-03-28T11:12:00.477Z,1018.86
2023-03-28T11:13:02.173Z,1018.83
2023-03-28T11:14:00.458Z,1018.82
2023-03-28T11:15:00.481Z,1018.86
2023-03-28T11:16:00.505Z,1018.83
2023-03-28T11:17:00.451Z,1018.79
2023-03-28T11:18:00.480Z,1018.75
2023-03-28T11:19:00.433Z,1018.73
2023-03-28T11:20:00.423Z,1018.74
2023-03-28T11:21:00.577Z,1018.81
2023-03-28T11:22:00.413Z,1018.76
2023-03-28T11:23:06.347Z,1018.74
2023-03-28T11:24:00.407Z,1018.75
2023-03-28T11:25:00.395Z,1018.69
2023-03-28T11:26:00.418Z,1018.66
2023-03-28T11:27:12.609Z,1018.69
2023-03-28T11:28:00.382Z,1018.63
2023-03-28T11:29:00.376Z,1018.62
2023-03-28T11:30:00.386Z,1018.59
2023-03-28T11:31:00.581Z,1018.61
2023-03-28T11:32:00.375Z,1018.63
2023-03-28T11:33:00.465Z,1018.53
2023-03-28T11:34:00.362Z,1018.53
2023-03-28T11:35:00.324Z,1018.55
2023-03-28T11:36:00.353Z,1018.50
2023-03-28T11:37:00.330Z,1018.47
2023-03-28T11:38:00.312Z,1018.48
2023-03-28T11:39:00.309Z,1018.43
2023-03-28T11:40:00.339Z,1018.46
2023-03-28T11:41:00.451Z,1018.50
2023-03-28T11:42:00.291Z,1018.48
2023-03-28T11:43:00.287Z,1018.51
2023-03-28T11:44:00.277Z,1018.46
2023-03-28T11:45:00.282Z,1018.48
2023-03-28T11:46:00.316Z,1018.44
2023-03-28T11:47:00.255Z,1018.43
2023-03-28T11:48:00.276Z,1018.38
2023-03-28T11:49:00.300Z,1018.30
2023-03-28T11:50:00.247Z,1018.31
2023-03-28T11:51:00.435Z,1018.28
2023-03-28T11:52:00.220Z,1018.26
2023-03-28T11:53:00.215Z,1018.27
2023-03-28T11:54:00.210Z,1018.23
2023-03-28T11:55:00.210Z,1018.18
2023-03-28T11:56:00.395Z,1018.16
2023-03-28T11:57:00.254Z,1018.20
2023-03-28T11:58:00.186Z,1018.15
2023-03-28T11:59:00.173Z,1018.13
2023-03-28T12:00:00.180Z,1018.11
2023-03-28T12:01:00.407Z,1018.13
2023-03-28T12:02:00.203Z,1018.10
2023-03-28T12:03:00.351Z,1018.11
2023-03-28T12:04:00.231Z,1018.09
2023-03-28T12:05:00.145Z,1018.09
2023-03-28T12:06:04.788Z,1018.07